sensor_id;sensor_type;location;lat;lon;timestamp;P1;durP1;ratioP1;P2;durP2;ratioP2
64061;SDS011;50308;47.438;-1.528;2023-04-15T00:01:26;4.28;;;1.70;;
64061;SDS011;50308;47.438;-1.528;2023-04-15T00:03:53;7.43;;;2.47;;
64061;SDS011;50308;47.438;-1.528;2023-04-15T00:06:22;9.55;;;1.88;;
64061;SDS011;50308;47.438;-1.528;2023-04-15T00:08:47;8.07;;;2.17;;
64061;SDS011;50308;47.438;-1.528;2023-04-15T00:11:14;8.25;;;1.60;;
64061;SDS011;50308;47.438;-1.528;2023-04-15T00:13:41;4.07;;;1.63;;
64061;SDS011;50308;47.438;-1.528;2023-04-15T00:16:07;8.15;;;2.10;;
64061;SDS011;50308;47.438;-1.528;2023-04-15T00:18:34;5.10;;;1.90;;
64061;SDS011;50308;47.438;-1.528;2023-04-15T00:21:00;5.40;;;1.60;;
64061;SDS011;50308;47.438;-1.528;2023-04-15T00:23:26;6.70;;;2.10;;
64061;SDS011;50308;47.438;-1.528;2023-04-15T00:25:52;9.38;;;1.85;;
64061;SDS011;50308;47.438;-1.528;2023-04-15T00:28:18;7.88;;;2.38;;
64061;SDS011;50308;47.438;-1.528;2023-04-15T00:30:44;10.52;;;2.13;;
64061;SDS011;50308;47.438;-1.528;2023-04-15T00:33:10;6.40;;;2.40;;
64061;SDS011;50308;47.438;-1.528;2023-04-15T00:35:36;8.90;;;1.77;;
64061;SDS011;50308;47.438;-1.528;2023-04-15T00:38:03;4.40;;;1.73;;
64061;SDS011;50308;47.438;-1.528;2023-04-15T00:40:29;5.57;;;1.80;;
64061;SDS011;50308;47.438;-1.528;2023-04-15T00:42:55;6.65;;;2.00;;
64061;SDS011;50308;47.438;-1.528;2023-04-15T00:45:21;5.05;;;2.45;;
64061;SDS011;50308;47.438;-1.528;2023-04-15T00:47:47;8.75;;;1.95;;
64061;SDS011;50308;47.438;-1.528;2023-04-15T00:50:13;4.63;;;1.85;;
64061;SDS011;50308;47.438;-1.528;2023-04-15T00:52:39;4.10;;;1.80;;
64061;SDS011;50308;47.438;-1.528;2023-04-15T00:55:05;3.50;;;1.75;;
64061;SDS011;50308;47.438;-1.528;2023-04-15T00:57:31;4.90;;;1.63;;
64061;SDS011;50308;47.438;-1.528;2023-04-15T00:59:57;7.13;;;1.50;;
64061;SDS011;50308;47.438;-1.528;2023-04-15T01:02:24;5.18;;;1.98;;
64061;SDS011;50308;47.438;-1.528;2023-04-15T01:04:51;4.60;;;1.80;;
64061;SDS011;50308;47.438;-1.528;2023-04-15T01:07:16;4.57;;;1.90;;
64061;SDS011;50308;47.438;-1.528;2023-04-15T01:09:42;5.30;;;1.65;;
64061;SDS011;50308;47.438;-1.528;2023-04-15T01:12:11;6.28;;;1.90;;
64061;SDS011;50308;47.438;-1.528;2023-04-15T01:14:39;3.80;;;1.45;;
64061;SDS011;50308;47.438;-1.528;2023-04-15T01:17:05;8.05;;;1.77;;
64061;SDS011;50308;47.438;-1.528;2023-04-15T01:19:31;6.38;;;1.40;;
64061;SDS011;50308;47.438;-1.528;2023-04-15T01:21:57;8.70;;;2.05;;
64061;SDS011;50308;47.438;-1.528;2023-04-15T01:24:23;5.18;;;1.70;;
64061;SDS011;50308;47.438;-1.528;2023-04-15T01:26:52;6.32;;;1.42;;
64061;SDS011;50308;47.438;-1.528;2023-04-15T01:29:18;2.83;;;1.30;;
64061;SDS011;50308;47.438;-1.528;2023-04-15T01:31:53;4.65;;;1.75;;
64061;SDS011;50308;47.438;-1.528;2023-04-15T01:34:20;6.18;;;1.45;;
64061;SDS011;50308;47.438;-1.528;2023-04-15T01:36:46;5.47;;;1.42;;
64061;SDS011;50308;47.438;-1.528;2023-04-15T01:39:12;4.00;;;1.85;;
64061;SDS011;50308;47.438;-1.528;2023-04-15T01:41:38;9.05;;;2.22;;
64061;SDS011;50308;47.438;-1.528;2023-04-15T01:44:04;3.08;;;1.33;;
64061;SDS011;50308;47.438;-1.528;2023-04-15T01:46:31;6.13;;;1.50;;
64061;SDS011;50308;47.438;-1.528;2023-04-15T01:48:57;3.83;;;1.35;;
64061;SDS011;50308;47.438;-1.528;2023-04-15T01:51:22;3.28;;;1.70;;
64061;SDS011;50308;47.438;-1.528;2023-04-15T01:53:48;4.20;;;1.70;;
64061;SDS011;50308;47.438;-1.528;2023-04-15T01:56:14;2.47;;;1.30;;
64061;SDS011;50308;47.438;-1.528;2023-04-15T01:58:40;4.07;;;1.45;;
64061;SDS011;50308;47.438;-1.528;2023-04-15T02:01:06;4.43;;;1.30;;
64061;SDS011;50308;47.438;-1.528;2023-04-15T02:03:31;6.53;;;1.58;;
64061;SDS011;50308;47.438;-1.528;2023-04-15T02:05:57;5.95;;;1.60;;
64061;SDS011;50308;47.438;-1.528;2023-04-15T02:08:23;2.85;;;1.20;;
64061;SDS011;50308;47.438;-1.528;2023-04-15T02:10:48;3.55;;;1.30;;
64061;SDS011;50308;47.438;-1.528;2023-04-15T02:13:14;2.65;;;1.38;;
64061;SDS011;50308;47.438;-1.528;2023-04-15T02:15:45;3.10;;;1.42;;
64061;SDS011;50308;47.438;-1.528;2023-04-15T02:18:14;5.80;;;1.52;;
64061;SDS011;50308;47.438;-1.528;2023-04-15T02:20:40;3.75;;;1.20;;
64061;SDS011;50308;47.438;-1.528;2023-04-15T02:23:07;3.53;;;1.27;;
64061;SDS011;50308;47.438;-1.528;2023-04-15T02:25:33;3.38;;;1.17;;
64061;SDS011;50308;47.438;-1.528;2023-04-15T02:27:59;5.32;;;1.55;;
64061;SDS011;50308;47.438;-1.528;2023-04-15T02:30:25;7.25;;;1.30;;
64061;SDS011;50308;47.438;-1.528;2023-04-15T02:32:51;3.60;;;1.65;;
64061;SDS011;50308;47.438;-1.528;2023-04-15T02:35:16;2.97;;;1.23;;
64061;SDS011;50308;47.438;-1.528;2023-04-15T02:37:45;4.10;;;1.10;;
64061;SDS011;50308;47.438;-1.528;2023-04-15T02:40:11;3.63;;;1.40;;
64061;SDS011;50308;47.438;-1.528;2023-04-15T02:42:37;6.95;;;1.52;;
64061;SDS011;50308;47.438;-1.528;2023-04-15T02:45:04;4.28;;;1.58;;
64061;SDS011;50308;47.438;-1.528;2023-04-15T02:47:31;3.42;;;1.58;;
64061;SDS011;50308;47.438;-1.528;2023-04-15T02:49:57;5.50;;;1.58;;
64061;SDS011;50308;47.438;-1.528;2023-04-15T02:52:24;5.10;;;1.50;;
64061;SDS011;50308;47.438;-1.528;2023-04-15T02:54:50;3.85;;;1.38;;
64061;SDS011;50308;47.438;-1.528;2023-04-15T02:57:16;5.22;;;1.98;;
64061;SDS011;50308;47.438;-1.528;2023-04-15T02:59:41;3.63;;;1.40;;
64061;SDS011;50308;47.438;-1.528;2023-04-15T03:02:07;3.13;;;1.40;;
64061;SDS011;50308;47.438;-1.528;2023-04-15T03:04:33;4.90;;;1.90;;
64061;SDS011;50308;47.438;-1.528;2023-04-15T03:06:59;4.32;;;1.25;;
64061;SDS011;50308;47.438;-1.528;2023-04-15T03:09:25;2.95;;;1.30;;
64061;SDS011;50308;47.438;-1.528;2023-04-15T03:11:51;4.40;;;1.25;;
64061;SDS011;50308;47.438;-1.528;2023-04-15T03:14:18;12.27;;;1.52;;
64061;SDS011;50308;47.438;-1.528;2023-04-15T03:16:44;3.05;;;1.17;;
64061;SDS011;50308;47.438;-1.528;2023-04-15T03:19:10;9.18;;;1.98;;
64061;SDS011;50308;47.438;-1.528;2023-04-15T03:21:36;2.17;;;1.10;;
64061;SDS011;50308;47.438;-1.528;2023-04-15T03:24:01;4.60;;;2.30;;
64061;SDS011;50308;47.438;-1.528;2023-04-15T03:26:30;5.72;;;1.23;;
64061;SDS011;50308;47.438;-1.528;2023-04-15T03:28:56;3.55;;;1.38;;
64061;SDS011;50308;47.438;-1.528;2023-04-15T03:31:22;5.03;;;1.40;;
64061;SDS011;50308;47.438;-1.528;2023-04-15T03:33:48;4.32;;;1.40;;
64061;SDS011;50308;47.438;-1.528;2023-04-15T03:36:14;2.88;;;1.52;;
64061;SDS011;50308;47.438;-1.528;2023-04-15T03:38:40;5.75;;;1.67;;
64061;SDS011;50308;47.438;-1.528;2023-04-15T03:41:05;3.50;;;1.50;;
64061;SDS011;50308;47.438;-1.528;2023-04-15T03:43:31;4.25;;;1.73;;
64061;SDS011;50308;47.438;-1.528;2023-04-15T03:45:57;4.28;;;1.23;;
64061;SDS011;50308;47.438;-1.528;2023-04-15T03:48:23;4.05;;;1.60;;
64061;SDS011;50308;47.438;-1.528;2023-04-15T03:50:48;4.53;;;1.30;;
64061;SDS011;50308;47.438;-1.528;2023-04-15T03:53:14;3.17;;;1.33;;
64061;SDS011;50308;47.438;-1.528;2023-04-15T03:55:40;4.43;;;1.50;;
64061;SDS011;50308;47.438;-1.528;2023-04-15T03:58:06;2.75;;;1.10;;
64061;SDS011;50308;47.438;-1.528;2023-04-15T04:00:32;3.08;;;1.40;;
64061;SDS011;50308;47.438;-1.528;2023-04-15T04:02:57;2.75;;;1.27;;
64061;SDS011;50308;47.438;-1.528;2023-04-15T04:05:23;3.47;;;1.20;;
64061;SDS011;50308;47.438;-1.528;2023-04-15T04:07:48;3.50;;;1.40;;
64061;SDS011;50308;47.438;-1.528;2023-04-15T04:10:14;6.32;;;1.35;;
64061;SDS011;50308;47.438;-1.528;2023-04-15T04:12:40;7.28;;;1.60;;
64061;SDS011;50308;47.438;-1.528;2023-04-15T04:15:06;5.97;;;1.60;;
64061;SDS011;50308;47.438;-1.528;2023-04-15T04:17:32;4.35;;;1.40;;
64061;SDS011;50308;47.438;-1.528;2023-04-15T04:19:58;2.03;;;1.45;;
64061;SDS011;50308;47.438;-1.528;2023-04-15T04:22:23;4.28;;;1.45;;
64061;SDS011;50308;47.438;-1.528;2023-04-15T04:24:49;1.25;;;1.00;;
64061;SDS011;50308;47.438;-1.528;2023-04-15T04:27:15;3.97;;;1.30;;
64061;SDS011;50308;47.438;-1.528;2023-04-15T04:29:41;8.02;;;1.58;;
64061;SDS011;50308;47.438;-1.528;2023-04-15T04:32:07;7.45;;;1.55;;
64061;SDS011;50308;47.438;-1.528;2023-04-15T04:34:33;3.00;;;1.63;;
64061;SDS011;50308;47.438;-1.528;2023-04-15T04:36:58;2.45;;;1.08;;
64061;SDS011;50308;47.438;-1.528;2023-04-15T04:39:24;2.17;;;1.40;;
64061;SDS011;50308;47.438;-1.528;2023-04-15T04:41:50;6.97;;;1.67;;
64061;SDS011;50308;47.438;-1.528;2023-04-15T04:44:18;2.60;;;1.38;;
64061;SDS011;50308;47.438;-1.528;2023-04-15T04:46:44;4.25;;;2.00;;
64061;SDS011;50308;47.438;-1.528;2023-04-15T04:49:10;7.63;;;1.30;;
64061;SDS011;50308;47.438;-1.528;2023-04-15T04:51:35;2.22;;;1.10;;
64061;SDS011;50308;47.438;-1.528;2023-04-15T04:54:01;4.03;;;1.30;;
64061;SDS011;50308;47.438;-1.528;2023-04-15T04:56:27;6.38;;;1.27;;
64061;SDS011;50308;47.438;-1.528;2023-04-15T04:58:52;5.28;;;1.05;;
64061;SDS011;50308;47.438;-1.528;2023-04-15T05:01:18;2.42;;;1.58;;
64061;SDS011;50308;47.438;-1.528;2023-04-15T05:03:44;2.85;;;1.02;;
64061;SDS011;50308;47.438;-1.528;2023-04-15T05:06:10;2.60;;;1.02;;
64061;SDS011;50308;47.438;-1.528;2023-04-15T05:08:35;2.45;;;0.90;;
64061;SDS011;50308;47.438;-1.528;2023-04-15T05:11:02;2.53;;;1.02;;
64061;SDS011;50308;47.438;-1.528;2023-04-15T05:13:28;3.95;;;1.10;;
64061;SDS011;50308;47.438;-1.528;2023-04-15T05:15:54;3.03;;;1.13;;
64061;SDS011;50308;47.438;-1.528;2023-04-15T05:18:20;4.97;;;1.92;;
64061;SDS011;50308;47.438;-1.528;2023-04-15T05:20:46;2.72;;;1.60;;
64061;SDS011;50308;47.438;-1.528;2023-04-15T05:23:14;4.07;;;1.23;;
64061;SDS011;50308;47.438;-1.528;2023-04-15T05:25:40;5.45;;;1.30;;
64061;SDS011;50308;47.438;-1.528;2023-04-15T05:28:06;2.58;;;1.10;;
64061;SDS011;50308;47.438;-1.528;2023-04-15T05:30:32;4.22;;;1.42;;
64061;SDS011;50308;47.438;-1.528;2023-04-15T05:32:57;2.55;;;1.20;;
64061;SDS011;50308;47.438;-1.528;2023-04-15T05:35:23;4.72;;;1.38;;
64061;SDS011;50308;47.438;-1.528;2023-04-15T05:37:49;4.80;;;1.40;;
64061;SDS011;50308;47.438;-1.528;2023-04-15T05:40:15;1.92;;;1.17;;
64061;SDS011;50308;47.438;-1.528;2023-04-15T05:42:40;4.22;;;1.17;;
64061;SDS011;50308;47.438;-1.528;2023-04-15T05:45:06;4.00;;;1.35;;
64061;SDS011;50308;47.438;-1.528;2023-04-15T05:47:34;4.97;;;1.50;;
64061;SDS011;50308;47.438;-1.528;2023-04-15T05:50:01;5.90;;;1.30;;
64061;SDS011;50308;47.438;-1.528;2023-04-15T05:52:27;2.42;;;0.95;;
64061;SDS011;50308;47.438;-1.528;2023-04-15T05:54:53;3.53;;;1.27;;
64061;SDS011;50308;47.438;-1.528;2023-04-15T05:57:18;1.60;;;1.10;;
64061;SDS011;50308;47.438;-1.528;2023-04-15T05:59:44;3.90;;;1.30;;
64061;SDS011;50308;47.438;-1.528;2023-04-15T06:02:10;5.13;;;1.17;;
64061;SDS011;50308;47.438;-1.528;2023-04-15T06:04:36;3.75;;;1.25;;
64061;SDS011;50308;47.438;-1.528;2023-04-15T06:07:01;5.20;;;1.38;;
64061;SDS011;50308;47.438;-1.528;2023-04-15T06:09:27;7.03;;;1.30;;
64061;SDS011;50308;47.438;-1.528;2023-04-15T06:11:53;3.58;;;1.33;;
64061;SDS011;50308;47.438;-1.528;2023-04-15T06:14:20;4.97;;;1.40;;
64061;SDS011;50308;47.438;-1.528;2023-04-15T06:16:45;2.75;;;1.25;;
64061;SDS011;50308;47.438;-1.528;2023-04-15T06:19:11;4.25;;;1.50;;
64061;SDS011;50308;47.438;-1.528;2023-04-15T06:21:38;6.88;;;1.90;;
64061;SDS011;50308;47.438;-1.528;2023-04-15T06:24:04;5.40;;;1.30;;
64061;SDS011;50308;47.438;-1.528;2023-04-15T06:26:30;4.18;;;1.50;;
64061;SDS011;50308;47.438;-1.528;2023-04-15T06:28:55;8.38;;;1.80;;
64061;SDS011;50308;47.438;-1.528;2023-04-15T06:31:21;3.88;;;1.50;;
64061;SDS011;50308;47.438;-1.528;2023-04-15T06:33:47;2.08;;;1.33;;
64061;SDS011;50308;47.438;-1.528;2023-04-15T06:36:13;5.82;;;1.58;;
64061;SDS011;50308;47.438;-1.528;2023-04-15T06:38:39;3.92;;;1.20;;
64061;SDS011;50308;47.438;-1.528;2023-04-15T06:41:05;4.93;;;1.42;;
64061;SDS011;50308;47.438;-1.528;2023-04-15T06:43:31;4.95;;;1.50;;
64061;SDS011;50308;47.438;-1.528;2023-04-15T06:45:56;5.53;;;1.60;;
64061;SDS011;50308;47.438;-1.528;2023-04-15T06:48:23;4.95;;;1.45;;
64061;SDS011;50308;47.438;-1.528;2023-04-15T06:50:48;2.92;;;1.10;;
64061;SDS011;50308;47.438;-1.528;2023-04-15T06:53:14;6.03;;;1.83;;
64061;SDS011;50308;47.438;-1.528;2023-04-15T06:55:40;5.97;;;1.80;;
64061;SDS011;50308;47.438;-1.528;2023-04-15T06:58:06;4.90;;;1.85;;
64061;SDS011;50308;47.438;-1.528;2023-04-15T07:00:32;4.50;;;1.77;;
64061;SDS011;50308;47.438;-1.528;2023-04-15T07:02:58;4.93;;;1.98;;
64061;SDS011;50308;47.438;-1.528;2023-04-15T07:05:27;4.38;;;1.50;;
64061;SDS011;50308;47.438;-1.528;2023-04-15T07:07:54;6.03;;;1.70;;
64061;SDS011;50308;47.438;-1.528;2023-04-15T07:10:20;6.80;;;2.08;;
64061;SDS011;50308;47.438;-1.528;2023-04-15T07:12:47;6.28;;;1.58;;
64061;SDS011;50308;47.438;-1.528;2023-04-15T07:15:13;7.47;;;2.15;;
64061;SDS011;50308;47.438;-1.528;2023-04-15T07:17:40;6.32;;;1.52;;
64061;SDS011;50308;47.438;-1.528;2023-04-15T07:20:07;7.20;;;1.90;;
64061;SDS011;50308;47.438;-1.528;2023-04-15T07:22:33;8.82;;;1.63;;
64061;SDS011;50308;47.438;-1.528;2023-04-15T07:24:59;6.22;;;1.73;;
64061;SDS011;50308;47.438;-1.528;2023-04-15T07:27:25;5.95;;;2.20;;
64061;SDS011;50308;47.438;-1.528;2023-04-15T07:29:51;4.07;;;2.08;;
64061;SDS011;50308;47.438;-1.528;2023-04-15T07:32:17;6.70;;;1.83;;
64061;SDS011;50308;47.438;-1.528;2023-04-15T07:34:43;6.20;;;1.80;;
64061;SDS011;50308;47.438;-1.528;2023-04-15T07:37:09;5.38;;;1.70;;
64061;SDS011;50308;47.438;-1.528;2023-04-15T07:42:17;7.03;;;1.80;;
64061;SDS011;50308;47.438;-1.528;2023-04-15T07:44:49;6.88;;;1.58;;
64061;SDS011;50308;47.438;-1.528;2023-04-15T07:47:16;7.80;;;1.80;;
64061;SDS011;50308;47.438;-1.528;2023-04-15T07:49:41;7.35;;;1.50;;
64061;SDS011;50308;47.438;-1.528;2023-04-15T07:52:08;4.00;;;1.80;;
64061;SDS011;50308;47.438;-1.528;2023-04-15T07:54:34;8.32;;;2.08;;
64061;SDS011;50308;47.438;-1.528;2023-04-15T07:56:59;8.82;;;2.20;;
64061;SDS011;50308;47.438;-1.528;2023-04-15T07:59:25;8.68;;;1.95;;
64061;SDS011;50308;47.438;-1.528;2023-04-15T08:01:53;8.55;;;1.85;;
64061;SDS011;50308;47.438;-1.528;2023-04-15T08:04:19;3.92;;;1.55;;
64061;SDS011;50308;47.438;-1.528;2023-04-15T08:06:45;4.82;;;2.00;;
64061;SDS011;50308;47.438;-1.528;2023-04-15T08:09:12;11.25;;;2.03;;
64061;SDS011;50308;47.438;-1.528;2023-04-15T08:11:37;8.32;;;2.65;;
64061;SDS011;50308;47.438;-1.528;2023-04-15T08:14:03;6.45;;;2.42;;
64061;SDS011;50308;47.438;-1.528;2023-04-15T08:16:29;6.30;;;2.17;;
64061;SDS011;50308;47.438;-1.528;2023-04-15T08:18:56;9.48;;;3.20;;
64061;SDS011;50308;47.438;-1.528;2023-04-15T08:21:22;7.40;;;1.90;;
64061;SDS011;50308;47.438;-1.528;2023-04-15T08:23:48;7.28;;;2.63;;
64061;SDS011;50308;47.438;-1.528;2023-04-15T08:26:15;10.75;;;2.30;;
64061;SDS011;50308;47.438;-1.528;2023-04-15T08:28:44;15.05;;;3.58;;
64061;SDS011;50308;47.438;-1.528;2023-04-15T08:31:11;11.20;;;2.42;;
64061;SDS011;50308;47.438;-1.528;2023-04-15T08:33:38;9.18;;;2.15;;
64061;SDS011;50308;47.438;-1.528;2023-04-15T08:36:04;7.75;;;2.35;;
64061;SDS011;50308;47.438;-1.528;2023-04-15T08:38:30;12.05;;;4.32;;
64061;SDS011;50308;47.438;-1.528;2023-04-15T08:40:56;7.43;;;3.13;;
64061;SDS011;50308;47.438;-1.528;2023-04-15T08:43:26;10.90;;;2.72;;
64061;SDS011;50308;47.438;-1.528;2023-04-15T08:45:54;12.65;;;2.95;;
64061;SDS011;50308;47.438;-1.528;2023-04-15T08:48:23;6.50;;;2.28;;
64061;SDS011;50308;47.438;-1.528;2023-04-15T08:50:52;12.73;;;2.22;;
64061;SDS011;50308;47.438;-1.528;2023-04-15T08:53:18;8.23;;;2.50;;
64061;SDS011;50308;47.438;-1.528;2023-04-15T08:55:44;7.90;;;2.20;;
64061;SDS011;50308;47.438;-1.528;2023-04-15T08:58:14;10.43;;;2.47;;
64061;SDS011;50308;47.438;-1.528;2023-04-15T09:00:40;13.00;;;2.67;;
64061;SDS011;50308;47.438;-1.528;2023-04-15T09:03:06;10.02;;;3.35;;
64061;SDS011;50308;47.438;-1.528;2023-04-15T09:05:34;16.40;;;3.33;;
64061;SDS011;50308;47.438;-1.528;2023-04-15T09:08:00;12.40;;;5.00;;
64061;SDS011;50308;47.438;-1.528;2023-04-15T09:10:27;9.68;;;2.35;;
64061;SDS011;50308;47.438;-1.528;2023-04-15T09:12:53;8.15;;;1.67;;
64061;SDS011;50308;47.438;-1.528;2023-04-15T09:15:19;21.27;;;3.17;;
64061;SDS011;50308;47.438;-1.528;2023-04-15T09:17:45;7.82;;;2.50;;
64061;SDS011;50308;47.438;-1.528;2023-04-15T09:20:13;4.50;;;2.30;;
64061;SDS011;50308;47.438;-1.528;2023-04-15T09:22:40;5.82;;;2.33;;
64061;SDS011;50308;47.438;-1.528;2023-04-15T09:25:23;5.03;;;1.40;;
64061;SDS011;50308;47.438;-1.528;2023-04-15T09:27:51;9.98;;;3.00;;
64061;SDS011;50308;47.438;-1.528;2023-04-15T09:30:18;6.68;;;2.03;;
64061;SDS011;50308;47.438;-1.528;2023-04-15T09:32:51;3.60;;;1.67;;
64061;SDS011;50308;47.438;-1.528;2023-04-15T09:35:18;5.20;;;1.75;;
64061;SDS011;50308;47.438;-1.528;2023-04-15T09:37:46;8.32;;;2.25;;
64061;SDS011;50308;47.438;-1.528;2023-04-15T09:40:12;4.70;;;1.55;;
64061;SDS011;50308;47.438;-1.528;2023-04-15T09:42:54;4.68;;;2.03;;
64061;SDS011;50308;47.438;-1.528;2023-04-15T09:45:21;3.08;;;1.83;;
64061;SDS011;50308;47.438;-1.528;2023-04-15T09:47:47;5.25;;;1.80;;
64061;SDS011;50308;47.438;-1.528;2023-04-15T09:50:15;5.22;;;1.75;;
64061;SDS011;50308;47.438;-1.528;2023-04-15T09:52:41;7.72;;;1.90;;
64061;SDS011;50308;47.438;-1.528;2023-04-15T09:55:08;4.30;;;1.52;;
64061;SDS011;50308;47.438;-1.528;2023-04-15T09:57:34;4.95;;;1.83;;
64061;SDS011;50308;47.438;-1.528;2023-04-15T10:00:04;7.05;;;2.03;;
64061;SDS011;50308;47.438;-1.528;2023-04-15T10:02:32;9.07;;;1.77;;
64061;SDS011;50308;47.438;-1.528;2023-04-15T10:04:58;7.00;;;1.80;;
64061;SDS011;50308;47.438;-1.528;2023-04-15T10:07:24;3.97;;;1.70;;
64061;SDS011;50308;47.438;-1.528;2023-04-15T10:09:51;4.93;;;1.70;;
64061;SDS011;50308;47.438;-1.528;2023-04-15T10:12:18;3.65;;;1.65;;
64061;SDS011;50308;47.438;-1.528;2023-04-15T10:14:46;5.22;;;1.77;;
64061;SDS011;50308;47.438;-1.528;2023-04-15T10:17:16;8.85;;;2.47;;
64061;SDS011;50308;47.438;-1.528;2023-04-15T10:19:43;5.85;;;2.22;;
64061;SDS011;50308;47.438;-1.528;2023-04-15T10:22:10;5.38;;;1.38;;
64061;SDS011;50308;47.438;-1.528;2023-04-15T10:24:36;8.80;;;1.70;;
64061;SDS011;50308;47.438;-1.528;2023-04-15T10:27:04;4.50;;;1.58;;
64061;SDS011;50308;47.438;-1.528;2023-04-15T10:29:30;8.27;;;2.15;;
64061;SDS011;50308;47.438;-1.528;2023-04-15T10:31:57;3.65;;;2.40;;
64061;SDS011;50308;47.438;-1.528;2023-04-15T10:34:24;2.78;;;1.38;;
64061;SDS011;50308;47.438;-1.528;2023-04-15T10:36:51;4.53;;;1.52;;
64061;SDS011;50308;47.438;-1.528;2023-04-15T10:42:17;3.92;;;1.42;;
64061;SDS011;50308;47.438;-1.528;2023-04-15T10:44:44;3.88;;;1.80;;
64061;SDS011;50308;47.438;-1.528;2023-04-15T10:47:17;3.07;;;1.60;;
64061;SDS011;50308;47.438;-1.528;2023-04-15T10:49:48;7.07;;;3.20;;
64061;SDS011;50308;47.438;-1.528;2023-04-15T10:52:22;3.90;;;2.28;;
64061;SDS011;50308;47.438;-1.528;2023-04-15T10:54:50;5.97;;;1.65;;
64061;SDS011;50308;47.438;-1.528;2023-04-15T10:57:36;3.80;;;1.83;;
64061;SDS011;50308;47.438;-1.528;2023-04-15T11:05:21;4.13;;;1.70;;
64061;SDS011;50308;47.438;-1.528;2023-04-15T11:08:11;6.40;;;1.35;;
64061;SDS011;50308;47.438;-1.528;2023-04-15T11:13:04;4.45;;;1.27;;
64061;SDS011;50308;47.438;-1.528;2023-04-15T11:15:40;3.80;;;1.50;;
64061;SDS011;50308;47.438;-1.528;2023-04-15T11:18:10;3.95;;;1.50;;
64061;SDS011;50308;47.438;-1.528;2023-04-15T11:20:38;3.35;;;1.20;;
64061;SDS011;50308;47.438;-1.528;2023-04-15T11:23:05;2.85;;;1.15;;
64061;SDS011;50308;47.438;-1.528;2023-04-15T11:25:33;2.50;;;1.13;;
64061;SDS011;50308;47.438;-1.528;2023-04-15T11:28:02;5.25;;;2.35;;
64061;SDS011;50308;47.438;-1.528;2023-04-15T11:30:29;3.42;;;1.13;;
64061;SDS011;50308;47.438;-1.528;2023-04-15T11:32:57;4.38;;;1.45;;
64061;SDS011;50308;47.438;-1.528;2023-04-15T11:35:24;2.20;;;1.00;;
64061;SDS011;50308;47.438;-1.528;2023-04-15T11:37:50;1.60;;;0.80;;
64061;SDS011;50308;47.438;-1.528;2023-04-15T11:40:16;3.63;;;1.25;;
64061;SDS011;50308;47.438;-1.528;2023-04-15T11:43:02;2.92;;;1.10;;
64061;SDS011;50308;47.438;-1.528;2023-04-15T11:45:32;3.17;;;1.35;;
64061;SDS011;50308;47.438;-1.528;2023-04-15T11:48:10;1.55;;;1.00;;
64061;SDS011;50308;47.438;-1.528;2023-04-15T11:50:37;4.15;;;1.40;;
64061;SDS011;50308;47.438;-1.528;2023-04-15T11:53:08;4.05;;;1.17;;
64061;SDS011;50308;47.438;-1.528;2023-04-15T11:55:43;3.77;;;1.07;;
64061;SDS011;50308;47.438;-1.528;2023-04-15T11:58:15;2.95;;;1.13;;
64061;SDS011;50308;47.438;-1.528;2023-04-15T12:00:46;2.50;;;1.02;;
64061;SDS011;50308;47.438;-1.528;2023-04-15T12:03:27;1.92;;;1.10;;
64061;SDS011;50308;47.438;-1.528;2023-04-15T12:06:03;3.08;;;1.00;;
64061;SDS011;50308;47.438;-1.528;2023-04-15T12:13:54;4.32;;;1.48;;
64061;SDS011;50308;47.438;-1.528;2023-04-15T12:16:28;5.90;;;1.50;;
64061;SDS011;50308;47.438;-1.528;2023-04-15T12:18:55;2.25;;;1.23;;
64061;SDS011;50308;47.438;-1.528;2023-04-15T12:21:23;2.72;;;1.13;;
64061;SDS011;50308;47.438;-1.528;2023-04-15T12:24:00;4.18;;;0.80;;
64061;SDS011;50308;47.438;-1.528;2023-04-15T12:26:35;2.30;;;1.02;;
64061;SDS011;50308;47.438;-1.528;2023-04-15T12:29:13;3.25;;;1.30;;
64061;SDS011;50308;47.438;-1.528;2023-04-15T12:31:47;2.95;;;1.25;;
64061;SDS011;50308;47.438;-1.528;2023-04-15T12:34:14;1.15;;;0.85;;
64061;SDS011;50308;47.438;-1.528;2023-04-15T12:36:40;2.20;;;0.90;;
64061;SDS011;50308;47.438;-1.528;2023-04-15T12:39:06;2.83;;;1.05;;
64061;SDS011;50308;47.438;-1.528;2023-04-15T12:41:32;2.50;;;1.00;;
64061;SDS011;50308;47.438;-1.528;2023-04-15T12:43:57;1.83;;;0.82;;
64061;SDS011;50308;47.438;-1.528;2023-04-15T12:46:24;2.30;;;0.90;;
64061;SDS011;50308;47.438;-1.528;2023-04-15T12:48:51;3.45;;;1.52;;
64061;SDS011;50308;47.438;-1.528;2023-04-15T12:51:17;3.75;;;1.00;;
64061;SDS011;50308;47.438;-1.528;2023-04-15T12:53:43;1.45;;;0.90;;
64061;SDS011;50308;47.438;-1.528;2023-04-15T12:56:09;2.15;;;1.15;;
64061;SDS011;50308;47.438;-1.528;2023-04-15T12:58:35;3.28;;;0.85;;
64061;SDS011;50308;47.438;-1.528;2023-04-15T13:01:01;1.80;;;1.02;;
64061;SDS011;50308;47.438;-1.528;2023-04-15T13:03:27;1.02;;;0.75;;
64061;SDS011;50308;47.438;-1.528;2023-04-15T13:05:53;1.98;;;0.90;;
64061;SDS011;50308;47.438;-1.528;2023-04-15T13:08:18;2.42;;;0.90;;
64061;SDS011;50308;47.438;-1.528;2023-04-15T13:10:44;2.67;;;0.90;;
64061;SDS011;50308;47.438;-1.528;2023-04-15T13:13:10;1.83;;;0.80;;
64061;SDS011;50308;47.438;-1.528;2023-04-15T13:15:36;1.33;;;0.80;;
64061;SDS011;50308;47.438;-1.528;2023-04-15T13:18:02;2.22;;;1.08;;
64061;SDS011;50308;47.438;-1.528;2023-04-15T13:20:29;4.30;;;0.88;;
64061;SDS011;50308;47.438;-1.528;2023-04-15T13:22:55;2.85;;;0.80;;
64061;SDS011;50308;47.438;-1.528;2023-04-15T13:25:20;2.03;;;0.80;;
64061;SDS011;50308;47.438;-1.528;2023-04-15T13:27:46;4.80;;;1.00;;
64061;SDS011;50308;47.438;-1.528;2023-04-15T13:30:12;1.33;;;0.88;;
64061;SDS011;50308;47.438;-1.528;2023-04-15T13:32:37;4.57;;;1.00;;
64061;SDS011;50308;47.438;-1.528;2023-04-15T13:35:03;0.85;;;0.52;;
64061;SDS011;50308;47.438;-1.528;2023-04-15T13:37:29;2.58;;;0.75;;
64061;SDS011;50308;47.438;-1.528;2023-04-15T13:39:55;2.22;;;0.85;;
64061;SDS011;50308;47.438;-1.528;2023-04-15T13:42:22;2.53;;;0.77;;
64061;SDS011;50308;47.438;-1.528;2023-04-15T13:44:48;3.40;;;0.82;;
64061;SDS011;50308;47.438;-1.528;2023-04-15T13:47:15;2.10;;;0.70;;
64061;SDS011;50308;47.438;-1.528;2023-04-15T13:49:42;1.52;;;0.80;;
64061;SDS011;50308;47.438;-1.528;2023-04-15T13:52:10;4.13;;;0.93;;
64061;SDS011;50308;47.438;-1.528;2023-04-15T13:54:36;1.33;;;0.63;;
64061;SDS011;50308;47.438;-1.528;2023-04-15T13:57:01;5.45;;;1.10;;
64061;SDS011;50308;47.438;-1.528;2023-04-15T13:59:27;3.00;;;1.08;;
64061;SDS011;50308;47.438;-1.528;2023-04-15T14:01:53;0.98;;;0.63;;
64061;SDS011;50308;47.438;-1.528;2023-04-15T14:04:18;3.50;;;1.05;;
64061;SDS011;50308;47.438;-1.528;2023-04-15T14:06:44;2.25;;;0.70;;
64061;SDS011;50308;47.438;-1.528;2023-04-15T14:09:10;4.05;;;0.88;;
64061;SDS011;50308;47.438;-1.528;2023-04-15T14:11:39;1.20;;;0.60;;
64061;SDS011;50308;47.438;-1.528;2023-04-15T14:14:04;2.70;;;0.60;;
64061;SDS011;50308;47.438;-1.528;2023-04-15T14:16:33;2.03;;;1.20;;
64061;SDS011;50308;47.438;-1.528;2023-04-15T14:18:59;1.98;;;0.90;;
64061;SDS011;50308;47.438;-1.528;2023-04-15T14:21:26;2.08;;;0.80;;
64061;SDS011;50308;47.438;-1.528;2023-04-15T14:23:56;1.42;;;0.63;;
64061;SDS011;50308;47.438;-1.528;2023-04-15T14:26:21;2.75;;;0.70;;
64061;SDS011;50308;47.438;-1.528;2023-04-15T14:28:47;2.17;;;0.80;;
64061;SDS011;50308;47.438;-1.528;2023-04-15T14:31:13;1.45;;;1.35;;
64061;SDS011;50308;47.438;-1.528;2023-04-15T14:33:39;1.90;;;0.80;;
64061;SDS011;50308;47.438;-1.528;2023-04-15T14:36:05;3.42;;;0.70;;
64061;SDS011;50308;47.438;-1.528;2023-04-15T14:38:33;3.85;;;0.98;;
64061;SDS011;50308;47.438;-1.528;2023-04-15T14:43:28;1.38;;;0.68;;
64061;SDS011;50308;47.438;-1.528;2023-04-15T14:45:54;1.98;;;1.20;;
64061;SDS011;50308;47.438;-1.528;2023-04-15T14:48:19;1.83;;;0.95;;
64061;SDS011;50308;47.438;-1.528;2023-04-15T14:50:45;1.10;;;0.90;;
64061;SDS011;50308;47.438;-1.528;2023-04-15T14:53:11;1.83;;;1.00;;